Página principal
METAR-TAF:

METAR-TAF

Aeroportos :

Ufa, Rússia

latitude: 54-43-48N, longitude: 055-55-48E, altura: 137 m

Observação actual do tempo

O boletim foi feito há 42 minutos, às 02:00 UTC
Vento 6 kt de oes-noroeste
Temperatura -8°C
Humidade 67%
Pressão 1026 hPa
Visibilidade 10 km ou mais
sem nuvens abaixo de 1500 metros e sem cumulonimbus

METAR: UWUU 190200Z 30003MPS CAVOK M08/M13 Q1026 R32L/0///60 NOSIG RMK QFE757/1009

Hora: 07:42 (02:42 UTC)

Previsão

O boletim foi feito há 47 minutos, às 01:55 UTC
Previsão válida de 19 às 03 UTC a 20 às 03 UTC
Vento 6 kt de oes-noroeste
Visibilidade 10 km ou mais
sem nuvens abaixo de 1500 metros e sem cumulonimbus
Temporariamente
de 19 às 03 UTC a 19 às 18 UTC
Vento 6 kt de nor-noroeste com rajadas de 16 kt
Temporariamente
de 19 às 18 UTC a 20 às 03 UTC
Vento 2 kt com direcção variável

TAF: UWUU 190155Z 1903/2003 29003MPS CAVOK TEMPO 1903/1918 33003G08MPS TEMPO 1918/2003 VRB01MPS

Observações e previsões do tempo de mais de 4000 aeroportos (mensagens METAR e TAF).

As estações disponíveis são os pontos amarelos e vermelhos sobre o mapa.

Mova o rato sobre o mapa para ver o nome da estação.

Depois clique no ponto para visualizar as observações e previsões meteorológicas.

Para alterar o mapa : clique nos botões verdes com uma cruz preta para aumentar o zoom; no botão verde com uma pitada de zoom; ou nas setas verdes para mapas adjacentes.


METAR-TAF: